Time;durP1;ratioP1;P1;durP2;ratioP2;P2;SDS_P1;SDS_P2;PMS_P1;PMS_P2;Temp;Humidity;BMP_temperature;BMP_pressure;BME280_temperature;BME280_humidity;BME280_pressure;Samples;Min_cycle;Max_cycle;Signal;HPM_P1;HPM_P2
2022/12/14 00:01:42;;;;;;;;;;;-4.20;99.90;;;;;;5036488;28;19971;-73
2022/12/14 00:04:14;;;;;;;;;;;-4.20;99.90;;;;;;5011098;28;19979;-75
2022/12/14 00:06:46;;;;;;;;;;;-4.20;99.90;;;;;;5035615;28;19971;-73
2022/12/14 00:09:13;;;;;;;;;;;-4.20;99.90;;;;;;5014209;28;19929;-72
2022/12/14 00:11:45;;;;;;;;;;;-4.20;99.90;;;;;;5026076;28;19925;-75
2022/12/14 00:14:16;;;;;;;;;;;-4.20;99.90;;;;;;5004479;28;19936;-74
2022/12/14 00:16:48;;;;;;;;;;;-4.20;99.90;;;;;;5037956;28;19943;-74
2022/12/14 00:19:19;;;;;;;;;;;-4.20;99.90;;;;;;5009130;28;20307;-74
2022/12/14 00:21:51;;;;;;;;;;;-4.20;99.90;;;;;;5038214;28;19932;-74
2022/12/14 00:24:23;;;;;;;;;;;-4.20;99.90;;;;;;5035741;28;19929;-74
2022/12/14 00:26:54;;;;;;;;;;;-4.20;99.90;;;;;;5031845;28;19925;-74
2022/12/14 00:29:26;;;;;;;;;;;-4.20;99.90;;;;;;5021257;28;19925;-75
2022/12/14 00:31:58;;;;;;;;;;;-4.20;99.90;;;;;;5041274;28;20464;-75
2022/12/14 00:34:30;;;;;;;;;;;-4.10;99.90;;;;;;5009851;28;19925;-74
2022/12/14 00:37:01;;;;;;;;;;;-4.10;99.90;;;;;;5035017;28;20272;-74
2022/12/14 00:39:33;;;;;;;;;;;-4.10;99.90;;;;;;5023630;28;20008;-75
2022/12/14 00:42:06;;;;;;;;;;;-4.10;99.90;;;;;;5017683;28;20022;-74
2022/12/14 00:44:37;;;;;;;;;;;-4.10;99.90;;;;;;5010628;28;19936;-75
2022/12/14 00:47:04;;;;;;;;;;;-4.10;99.90;;;;;;5040467;28;19936;-73
2022/12/14 00:49:36;;;;;;;;;;;-4.10;99.90;;;;;;5030137;28;19952;-75
2022/12/14 00:52:07;;;;;;;;;;;-4.00;99.90;;;;;;5020422;28;19925;-75
2022/12/14 00:54:39;;;;;;;;;;;-4.10;99.90;;;;;;5038451;28;20344;-74
2022/12/14 00:57:10;;;;;;;;;;;-4.10;99.90;;;;;;5025505;28;19937;-75
2022/12/14 00:59:42;;;;;;;;;;;-4.10;99.90;;;;;;5016187;28;19925;-75
2022/12/14 01:02:13;;;;;;;;;;;-4.10;99.90;;;;;;5030632;28;20437;-74
2022/12/14 01:04:40;;;;;;;;;;;-4.00;99.90;;;;;;5044949;28;19929;-74
2022/12/14 01:07:11;;;;;;;;;;;-4.00;99.90;;;;;;5020486;28;19989;-73
2022/12/14 01:09:43;;;;;;;;;;;-4.00;99.90;;;;;;5038297;28;19925;-75
2022/12/14 01:12:15;;;;;;;;;;;-4.00;99.90;;;;;;5023352;28;19997;-73
2022/12/14 01:14:48;;;;;;;;;;;-4.00;99.90;;;;;;5018805;28;20588;-74
2022/12/14 01:17:19;;;;;;;;;;;-4.00;99.90;;;;;;5030560;28;20292;-74
2022/12/14 01:19:51;;;;;;;;;;;-3.90;99.90;;;;;;5041723;28;19978;-74
2022/12/14 01:22:22;;;;;;;;;;;-3.90;99.90;;;;;;5042857;28;19925;-77
2022/12/14 01:24:54;;;;;;;;;;;-3.90;99.90;;;;;;5030992;28;19925;-75
2022/12/14 01:27:26;;;;;;;;;;;-3.90;99.90;;;;;;5034458;28;19925;-75
2022/12/14 01:29:57;;;;;;;;;;;-3.90;99.90;;;;;;5026265;28;20442;-73
2022/12/14 01:32:29;;;;;;;;;;;-3.90;99.90;;;;;;5016700;28;20059;-76
2022/12/14 01:35:01;;;;;;;;;;;-4.00;99.90;;;;;;5012282;28;19932;-75
2022/12/14 01:37:33;;;;;;;;;;;-4.00;99.90;;;;;;5043943;28;19925;-75
2022/12/14 01:40:05;;;;;;;;;;;-4.00;99.90;;;;;;5030091;28;19925;-74
2022/12/14 01:42:36;;;;;;;;;;;-4.00;99.90;;;;;;5006889;28;19929;-74
2022/12/14 01:45:20;;;;;;;;;;;-4.00;99.90;;;;;;5031418;28;19932;-73
2022/12/14 01:47:56;;;;;;;;;;;-3.90;99.90;;;;;;5035176;28;20377;-75
2022/12/14 01:50:31;;;;;;;;;;;-4.00;99.90;;;;;;5015013;28;19929;-74
2022/12/14 01:53:09;;;;;;;;;;;-4.00;99.90;;;;;;5036882;28;19932;-73
2022/12/14 01:55:42;;;;;;;;;;;-4.00;99.90;;;;;;5047071;28;19982;-75
2022/12/14 01:58:18;;;;;;;;;;;-4.00;99.90;;;;;;5006348;28;19974;-73
2022/12/14 02:00:55;;;;;;;;;;;-4.00;99.90;;;;;;5038300;28;19928;-74
2022/12/14 02:03:28;;;;;;;;;;;-4.00;99.90;;;;;;5020496;28;19929;-74
2022/12/14 02:06:01;;;;;;;;;;;-4.00;99.90;;;;;;5023742;28;19929;-74
2022/12/14 02:08:33;;;;;;;;;;;-3.90;99.90;;;;;;5042565;28;19925;-76
2022/12/14 02:11:05;;;;;;;;;;;-3.90;99.90;;;;;;5027201;28;19925;-74
2022/12/14 02:13:38;;;;;;;;;;;-3.90;99.90;;;;;;5013402;28;19925;-74
2022/12/14 02:16:10;;;;;;;;;;;-3.90;99.90;;;;;;5024086;28;19924;-76
2022/12/14 02:18:41;;;;;;;;;;;-3.90;99.90;;;;;;5036732;28;19936;-74
2022/12/14 02:21:34;;;;;;;;;;;-3.90;99.90;;;;;;5025062;28;19925;-75
2022/12/14 02:24:31;;;;;;;;;;;-3.80;99.90;;;;;;5020961;28;20514;-74
2022/12/14 02:27:11;;;;;;;;;;;-3.80;99.90;;;;;;5013264;28;19969;-74
2022/12/14 02:29:49;;;;;;;;;;;-3.80;99.90;;;;;;5039426;28;19929;-75
2022/12/14 02:32:30;;;;;;;;;;;-3.80;99.90;;;;;;4993219;28;19930;-75
2022/12/14 02:35:31;;;;;;;;;;;-3.80;99.90;;;;;;5035017;28;20657;-73
2022/12/14 02:38:05;;;;;;;;;;;-3.80;99.90;;;;;;4972599;28;20411;-75
2022/12/14 02:40:36;;;;;;;;;;;-3.80;99.90;;;;;;5043668;28;19930;-74
2022/12/14 02:43:21;;;;;;;;;;;-3.80;99.90;;;;;;5028735;28;19936;-75
2022/12/14 02:45:52;;;;;;;;;;;-3.80;99.90;;;;;;5001213;28;19980;-75
2022/12/14 02:48:27;;;;;;;;;;;-3.80;99.90;;;;;;5042773;28;20395;-75
2022/12/14 02:51:01;;;;;;;;;;;-3.80;99.90;;;;;;5028686;28;19929;-75
2022/12/14 02:53:53;;;;;;;;;;;-3.80;99.90;;;;;;5038947;28;19971;-74
2022/12/14 02:56:30;;;;;;;;;;;-3.80;99.90;;;;;;5025232;28;19989;-74
2022/12/14 02:59:03;;;;;;;;;;;-3.80;99.90;;;;;;5040258;28;20532;-77
2022/12/14 03:01:35;;;;;;;;;;;-3.80;99.90;;;;;;5031579;28;19979;-75
2022/12/14 03:04:07;;;;;;;;;;;-3.80;99.90;;;;;;5035655;28;20338;-74
2022/12/14 03:06:49;;;;;;;;;;;-3.80;99.90;;;;;;5020875;28;19972;-74
2022/12/14 03:09:21;;;;;;;;;;;-3.80;99.90;;;;;;5023196;28;19925;-74
2022/12/14 03:12:08;;;;;;;;;;;-3.70;99.90;;;;;;5042219;28;19929;-74
2022/12/14 03:14:43;;;;;;;;;;;-3.70;99.90;;;;;;5036965;28;19929;-75
2022/12/14 03:17:17;;;;;;;;;;;-3.70;99.90;;;;;;5038810;28;19929;-75
2022/12/14 03:19:52;;;;;;;;;;;-3.70;99.90;;;;;;5033754;28;19925;-73
2022/12/14 03:22:36;;;;;;;;;;;-3.70;99.90;;;;;;5043636;28;19925;-75
2022/12/14 03:25:16;;;;;;;;;;;-3.70;99.90;;;;;;5003413;28;19991;-75
2022/12/14 03:28:02;;;;;;;;;;;-3.70;99.90;;;;;;5037356;28;19928;-75
2022/12/14 03:30:35;;;;;;;;;;;-3.70;99.90;;;;;;5015687;28;19924;-76
2022/12/14 03:33:08;;;;;;;;;;;-3.70;99.90;;;;;;5030654;28;20661;-75
2022/12/14 03:35:43;;;;;;;;;;;-3.70;99.90;;;;;;5031751;28;20342;-75
2022/12/14 03:38:17;;;;;;;;;;;-3.60;99.90;;;;;;5006799;28;19933;-75
2022/12/14 03:40:56;;;;;;;;;;;-3.60;99.90;;;;;;5027483;28;19975;-73
2022/12/14 03:43:34;;;;;;;;;;;-3.60;99.90;;;;;;5022229;28;19929;-75
2022/12/14 03:46:29;;;;;;;;;;;-3.60;99.90;;;;;;5039853;28;19928;-75
2022/12/14 03:49:23;;;;;;;;;;;-3.60;99.90;;;;;;5006303;28;19941;-76
2022/12/14 03:52:09;;;;;;;;;;;-3.60;99.90;;;;;;5010744;28;20003;-75
2022/12/14 03:55:00;;;;;;;;;;;-3.70;99.90;;;;;;5018452;28;19935;-75
2022/12/14 03:57:35;;;;;;;;;;;-3.60;99.90;;;;;;5009994;28;20406;-75
2022/12/14 04:00:08;;;;;;;;;;;-3.60;99.90;;;;;;5014512;28;19990;-75
2022/12/14 04:02:41;;;;;;;;;;;-3.60;99.90;;;;;;5029087;28;19925;-76
2022/12/14 04:05:22;;;;;;;;;;;-3.70;99.90;;;;;;5039203;28;19932;-76
2022/12/14 04:08:02;;;;;;;;;;;-3.70;99.90;;;;;;5028398;28;19925;-77
2022/12/14 04:19:39;;;;;;;;;;;-3.70;99.90;;;;;;5034484;28;19925;-76
2022/12/14 04:22:13;;;;;;;;;;;-3.60;99.90;;;;;;5015513;28;19955;-75
2022/12/14 04:27:45;;;;;;;;;;;-3.70;99.90;;;;;;5044758;28;20331;-75
2022/12/14 04:30:17;;;;;;;;;;;-3.70;99.90;;;;;;5047123;28;19925;-75
2022/12/14 04:32:51;;;;;;;;;;;-3.60;99.90;;;;;;5036682;28;19928;-75
2022/12/14 04:35:23;;;;;;;;;;;-3.70;99.90;;;;;;5012039;28;19925;-76
2022/12/14 04:37:59;;;;;;;;;;;-3.70;99.90;;;;;;5014084;28;19925;-77
2022/12/14 04:40:34;;;;;;;;;;;-3.70;99.90;;;;;;5019782;28;19943;-75
2022/12/14 04:43:08;;;;;;;;;;;-3.70;99.90;;;;;;5041069;28;19936;-75
2022/12/14 04:45:42;;;;;;;;;;;-3.70;99.90;;;;;;5037130;28;19925;-75
2022/12/14 04:48:32;;;;;;;;;;;-3.70;99.90;;;;;;5049357;28;19925;-77
2022/12/14 04:51:04;;;;;;;;;;;-3.70;99.90;;;;;;5003151;28;19926;-76
2022/12/14 04:53:37;;;;;;;;;;;-3.70;99.90;;;;;;4997895;28;19925;-77
2022/12/14 04:56:11;;;;;;;;;;;-3.70;99.90;;;;;;5002274;28;19929;-75
2022/12/14 04:58:43;;;;;;;;;;;-3.60;99.90;;;;;;5039941;28;20399;-75
2022/12/14 05:01:17;;;;;;;;;;;-3.60;99.90;;;;;;5007841;28;20442;-75
2022/12/14 05:04:07;;;;;;;;;;;-3.60;99.90;;;;;;5017417;28;19925;-75
2022/12/14 05:06:42;;;;;;;;;;;-3.50;99.90;;;;;;5027346;28;20575;-76
2022/12/14 05:09:16;;;;;;;;;;;-3.50;99.90;;;;;;5029982;28;19983;-75
2022/12/14 05:11:55;;;;;;;;;;;-3.60;99.90;;;;;;5031245;28;19932;-77
2022/12/14 05:14:31;;;;;;;;;;;-3.50;99.90;;;;;;5033823;28;19925;-74
2022/12/14 05:17:04;;;;;;;;;;;-3.50;99.90;;;;;;5008786;28;19944;-75
2022/12/14 05:19:36;;;;;;;;;;;-3.50;99.90;;;;;;5004658;28;19933;-76
2022/12/14 05:22:07;;;;;;;;;;;-3.50;99.90;;;;;;5035249;28;19929;-75
2022/12/14 05:24:39;;;;;;;;;;;-3.40;99.90;;;;;;5042389;28;19929;-75
2022/12/14 05:27:11;;;;;;;;;;;-3.50;99.90;;;;;;5037148;28;19929;-77
2022/12/14 05:29:42;;;;;;;;;;;-3.40;99.90;;;;;;5026374;28;19984;-77
2022/12/14 05:32:14;;;;;;;;;;;-3.40;99.90;;;;;;5041912;28;19925;-75
2022/12/14 05:34:45;;;;;;;;;;;-3.40;99.90;;;;;;5032905;28;20276;-76
2022/12/14 05:37:17;;;;;;;;;;;-3.50;99.90;;;;;;5040517;28;19932;-75
2022/12/14 05:39:49;;;;;;;;;;;-3.40;99.90;;;;;;5029679;28;19932;-75
2022/12/14 05:42:20;;;;;;;;;;;-3.40;99.90;;;;;;5032285;28;19925;-75
2022/12/14 05:44:52;;;;;;;;;;;-3.50;99.90;;;;;;5040234;28;19932;-75
2022/12/14 05:47:23;;;;;;;;;;;-3.50;99.90;;;;;;5003717;28;19925;-75
2022/12/14 05:49:55;;;;;;;;;;;-3.40;99.90;;;;;;5033801;28;19936;-75
2022/12/14 05:52:27;;;;;;;;;;;-3.50;99.90;;;;;;5041421;28;19925;-75
2022/12/14 05:54:58;;;;;;;;;;;-3.50;99.90;;;;;;5037787;28;19925;-75
2022/12/14 05:57:30;;;;;;;;;;;-3.50;99.90;;;;;;5027655;28;19929;-75
2022/12/14 06:00:02;;;;;;;;;;;-3.50;99.90;;;;;;5039859;28;19929;-74
2022/12/14 06:02:34;;;;;;;;;;;-3.50;99.90;;;;;;5038795;28;19963;-75
2022/12/14 06:05:05;;;;;;;;;;;-3.40;99.90;;;;;;5042613;28;19972;-76
2022/12/14 06:07:37;;;;;;;;;;;-3.40;99.90;;;;;;5040209;28;19925;-75
2022/12/14 06:10:09;;;;;;;;;;;-3.40;99.90;;;;;;5043587;28;19924;-76
2022/12/14 06:12:40;;;;;;;;;;;-3.40;99.90;;;;;;5002732;28;19972;-75
2022/12/14 06:15:12;;;;;;;;;;;-3.40;99.90;;;;;;5038164;28;19929;-75
2022/12/14 06:17:45;;;;;;;;;;;-3.40;99.90;;;;;;5040263;28;20343;-75
2022/12/14 06:20:16;;;;;;;;;;;-3.40;99.90;;;;;;5040254;28;19991;-75
2022/12/14 06:22:48;;;;;;;;;;;-3.40;99.90;;;;;;5045936;28;19924;-76
2022/12/14 06:25:20;;;;;;;;;;;-3.40;99.90;;;;;;5018897;28;19925;-75
2022/12/14 06:27:53;;;;;;;;;;;-3.40;99.90;;;;;;5022373;28;19925;-76
2022/12/14 06:30:25;;;;;;;;;;;-3.40;99.90;;;;;;5037994;28;20405;-76
2022/12/14 06:32:57;;;;;;;;;;;-3.40;99.90;;;;;;5022969;28;19979;-77
2022/12/14 06:35:28;;;;;;;;;;;-3.40;99.90;;;;;;5041535;28;19975;-75
2022/12/14 06:38:00;;;;;;;;;;;-3.40;99.90;;;;;;5024050;28;20003;-75
2022/12/14 06:40:31;;;;;;;;;;;-3.40;99.90;;;;;;5034953;28;20531;-75
2022/12/14 06:43:03;;;;;;;;;;;-3.50;99.90;;;;;;5028340;28;20291;-77
2022/12/14 06:45:34;;;;;;;;;;;-3.40;99.90;;;;;;5037324;28;19928;-74
2022/12/14 06:48:06;;;;;;;;;;;-3.40;99.90;;;;;;5043050;28;19937;-77
2022/12/14 06:50:38;;;;;;;;;;;-3.40;99.90;;;;;;5020400;28;19932;-76
2022/12/14 06:53:13;;;;;;;;;;;-3.40;99.90;;;;;;5033044;28;19925;-76
2022/12/14 06:55:44;;;;;;;;;;;-3.30;99.90;;;;;;5044170;28;19967;-75
2022/12/14 06:58:16;;;;;;;;;;;-3.40;99.90;;;;;;5035540;28;19929;-75
2022/12/14 07:00:47;;;;;;;;;;;-3.30;99.90;;;;;;5036177;28;19925;-75
2022/12/14 07:03:19;;;;;;;;;;;-3.30;99.90;;;;;;5022607;28;19933;-76
2022/12/14 07:05:54;;;;;;;;;;;-3.30;99.90;;;;;;5018410;28;19932;-76
2022/12/14 07:08:26;;;;;;;;;;;-3.30;99.90;;;;;;5001741;28;19925;-77
2022/12/14 07:11:05;;;;;;;;;;;-3.30;99.90;;;;;;5030175;28;19975;-76
2022/12/14 07:13:38;;;;;;;;;;;-3.20;99.90;;;;;;5032182;28;19929;-75
2022/12/14 07:16:17;;;;;;;;;;;-3.20;99.90;;;;;;5012248;28;19947;-76
2022/12/14 07:18:44;;;;;;;;;;;-3.20;99.90;;;;;;5008867;28;19932;-75
2022/12/14 07:21:17;;;;;;;;;;;-3.20;99.90;;;;;;5028174;28;19933;-75
2022/12/14 07:23:50;;;;;;;;;;;-3.20;99.90;;;;;;5030374;28;19925;-76
2022/12/14 07:26:23;;;;;;;;;;;-3.20;99.90;;;;;;5040043;28;19928;-77
2022/12/14 07:28:56;;;;;;;;;;;-3.10;99.90;;;;;;5040543;28;19925;-76
2022/12/14 07:31:28;;;;;;;;;;;-3.10;99.90;;;;;;5013332;28;19933;-75
2022/12/14 07:34:00;;;;;;;;;;;-3.20;99.90;;;;;;5018797;28;19925;-77
2022/12/14 07:36:31;;;;;;;;;;;-3.20;99.90;;;;;;5034412;28;19925;-76
2022/12/14 07:39:03;;;;;;;;;;;-3.20;99.90;;;;;;5042521;28;19964;-76
2022/12/14 07:41:35;;;;;;;;;;;-3.10;99.90;;;;;;5034446;28;19929;-76
2022/12/14 07:44:07;;;;;;;;;;;-3.10;99.90;;;;;;5015367;28;19983;-76
2022/12/14 07:46:39;;;;;;;;;;;-3.20;99.90;;;;;;5031719;28;19952;-77
2022/12/14 07:49:11;;;;;;;;;;;-3.10;99.90;;;;;;5029133;28;19928;-75
2022/12/14 07:51:44;;;;;;;;;;;-3.10;99.90;;;;;;5035203;28;19979;-76
2022/12/14 07:54:16;;;;;;;;;;;-3.00;99.90;;;;;;5022219;28;19980;-76
2022/12/14 07:56:47;;;;;;;;;;;-3.00;99.90;;;;;;5014283;28;19925;-75
2022/12/14 07:59:19;;;;;;;;;;;-2.90;99.90;;;;;;5040215;28;19928;-76
2022/12/14 08:01:51;;;;;;;;;;;-2.90;99.90;;;;;;5039949;28;19932;-76
2022/12/14 08:04:23;;;;;;;;;;;-2.90;99.90;;;;;;5038684;28;19983;-76
2022/12/14 08:06:54;;;;;;;;;;;-2.90;99.90;;;;;;5045163;28;19925;-75
2022/12/14 08:09:26;;;;;;;;;;;-2.90;99.90;;;;;;5030079;28;19978;-76
2022/12/14 08:11:57;;;;;;;;;;;-2.80;99.90;;;;;;5029136;28;20387;-76
2022/12/14 08:14:29;;;;;;;;;;;-2.80;99.90;;;;;;5015550;28;19975;-77
2022/12/14 08:16:55;;;;;;;;;;;-2.80;99.90;;;;;;5021391;28;20056;-76
2022/12/14 08:19:27;;;;;;;;;;;-2.70;99.90;;;;;;5041439;28;19933;-76
2022/12/14 08:21:59;;;;;;;;;;;-2.60;99.90;;;;;;5016398;28;19926;-77
2022/12/14 08:24:30;;;;;;;;;;;-2.60;99.90;;;;;;5020265;28;19925;-76
2022/12/14 08:27:02;;;;;;;;;;;-2.60;99.90;;;;;;5039013;28;19925;-76
2022/12/14 08:29:33;;;;;;;;;;;-2.50;99.90;;;;;;5012161;28;20305;-77
2022/12/14 08:32:05;;;;;;;;;;;-2.40;99.90;;;;;;5024120;28;20449;-78
2022/12/14 08:34:36;;;;;;;;;;;-2.40;99.90;;;;;;5037934;28;19925;-76
2022/12/14 08:37:08;;;;;;;;;;;-2.30;99.90;;;;;;5018437;28;20453;-76
2022/12/14 08:39:40;;;;;;;;;;;-2.30;99.90;;;;;;5039402;28;19925;-76
2022/12/14 08:42:11;;;;;;;;;;;-2.30;99.90;;;;;;5037523;28;19947;-75
2022/12/14 08:44:43;;;;;;;;;;;-2.20;99.90;;;;;;5034952;28;20351;-76
2022/12/14 08:47:14;;;;;;;;;;;-2.20;99.90;;;;;;5019814;28;19933;-76
2022/12/14 08:49:46;;;;;;;;;;;-2.30;99.90;;;;;;5020905;28;19930;-76
2022/12/14 08:52:20;;;;;;;;;;;-2.30;99.90;;;;;;5039617;28;19928;-76
2022/12/14 08:54:51;;;;;;;;;;;-2.20;99.90;;;;;;5018518;28;19925;-77
2022/12/14 08:57:23;;;;;;;;;;;-2.20;99.90;;;;;;5030360;28;20383;-75
2022/12/14 08:59:54;;;;;;;;;;;-2.10;99.90;;;;;;5038531;28;20399;-77
2022/12/14 09:02:26;;;;;;;;;;;-2.10;99.90;;;;;;5044418;28;19936;-76
2022/12/14 09:04:58;;;;;;;;;;;-2.20;99.90;;;;;;5022073;28;19936;-79
2022/12/14 09:07:30;;;;;;;;;;;-2.10;99.90;;;;;;5024923;28;20124;-76
2022/12/14 09:10:02;;;;;;;;;;;-2.10;99.90;;;;;;5034454;28;20565;-76
2022/12/14 09:12:35;;;;;;;;;;;-2.00;99.90;;;;;;5039949;28;19925;-76
2022/12/14 09:15:06;;;;;;;;;;;-1.90;99.90;;;;;;5040118;28;19925;-77
2022/12/14 09:17:38;;;;;;;;;;;-1.90;99.90;;;;;;5037776;28;20051;-76
2022/12/14 09:20:12;;;;;;;;;;;-1.80;99.90;;;;;;5034390;28;19933;-76
2022/12/14 09:22:49;;;;;;;;;;;-1.80;99.90;;;;;;5006017;28;20026;-77
2022/12/14 09:25:21;;;;;;;;;;;-1.70;99.90;;;;;;5028513;28;19929;-78
2022/12/14 09:27:52;;;;;;;;;;;-1.70;99.90;;;;;;4998915;28;19929;-77
2022/12/14 09:30:24;;;;;;;;;;;-1.70;99.90;;;;;;5035121;28;19929;-76
2022/12/14 09:32:55;;;;;;;;;;;-1.70;99.90;;;;;;5036966;28;19955;-77
2022/12/14 09:35:27;;;;;;;;;;;-1.70;99.90;;;;;;5017694;28;19936;-76
2022/12/14 09:37:58;;;;;;;;;;;-1.70;99.90;;;;;;5031073;28;19975;-77
2022/12/14 09:40:31;;;;;;;;;;;-1.70;99.90;;;;;;5010440;28;19928;-77
2022/12/14 09:43:04;;;;;;;;;;;-1.70;99.90;;;;;;5038588;28;20072;-76
2022/12/14 09:45:45;;;;;;;;;;;-1.70;99.90;;;;;;5042843;28;19925;-76
2022/12/14 09:48:19;;;;;;;;;;;-1.70;99.90;;;;;;5009363;28;19925;-77
2022/12/14 09:50:51;;;;;;;;;;;-1.60;99.90;;;;;;5010905;28;19925;-76
2022/12/14 09:53:23;;;;;;;;;;;-1.60;99.90;;;;;;5042231;28;19925;-77
2022/12/14 09:55:56;;;;;;;;;;;-1.70;99.90;;;;;;5033035;28;19940;-74
2022/12/14 09:58:28;;;;;;;;;;;-1.60;99.90;;;;;;5034720;28;19979;-76
2022/12/14 10:01:15;;;;;;;;;;;-1.60;99.90;;;;;;5018243;28;19979;-74
2022/12/14 10:04:11;;;;;;;;;;;-1.70;99.90;;;;;;5019119;28;19932;-76
2022/12/14 10:06:59;;;;;;;;;;;-1.70;99.90;;;;;;5033017;28;19991;-77
2022/12/14 10:09:31;;;;;;;;;;;-1.70;99.90;;;;;;5028239;28;20419;-77
2022/12/14 10:12:03;;;;;;;;;;;-1.70;99.90;;;;;;5022162;28;19932;-76
2022/12/14 10:14:29;;;;;;;;;;;-1.70;99.90;;;;;;5005346;28;19975;-76
2022/12/14 10:17:08;;;;;;;;;;;-1.70;99.90;;;;;;5031259;28;20016;-75
2022/12/14 10:19:45;;;;;;;;;;;-1.70;99.90;;;;;;5017996;28;19956;-75
2022/12/14 10:22:21;;;;;;;;;;;-1.60;99.90;;;;;;5018430;28;19925;-75
2022/12/14 10:25:02;;;;;;;;;;;-1.60;99.90;;;;;;5036675;28;20300;-75
2022/12/14 10:27:34;;;;;;;;;;;-1.50;99.90;;;;;;5028635;28;19957;-76
2022/12/14 10:30:10;;;;;;;;;;;-1.60;99.90;;;;;;5038175;28;19944;-74
2022/12/14 10:32:51;;;;;;;;;;;-1.60;99.90;;;;;;5036883;28;19932;-77
2022/12/14 10:35:34;;;;;;;;;;;-1.50;99.90;;;;;;5037998;28;19929;-74
2022/12/14 10:38:16;;;;;;;;;;;-1.50;99.90;;;;;;5032232;28;19979;-75
2022/12/14 10:40:51;;;;;;;;;;;-1.40;99.90;;;;;;5032532;28;20392;-75
2022/12/14 10:43:31;;;;;;;;;;;-1.40;99.90;;;;;;5018751;28;19925;-75
2022/12/14 10:46:06;;;;;;;;;;;-1.40;99.90;;;;;;5021536;28;19929;-77
2022/12/14 10:48:44;;;;;;;;;;;-1.40;99.90;;;;;;5036673;28;19929;-76
2022/12/14 10:51:28;;;;;;;;;;;-1.40;99.90;;;;;;5017673;28;19925;-75
2022/12/14 10:54:06;;;;;;;;;;;-1.40;99.90;;;;;;5015644;28;19933;-74
2022/12/14 10:56:39;;;;;;;;;;;-1.30;99.90;;;;;;5041399;28;19925;-74
2022/12/14 10:59:17;;;;;;;;;;;-1.20;99.90;;;;;;5043854;28;19925;-75
2022/12/14 11:01:51;;;;;;;;;;;-1.20;99.90;;;;;;5014122;28;19925;-75
2022/12/14 11:04:37;;;;;;;;;;;-1.20;99.90;;;;;;5033348;28;19934;-75
2022/12/14 11:07:10;;;;;;;;;;;-1.10;99.90;;;;;;5020900;28;20428;-74
2022/12/14 11:09:42;;;;;;;;;;;-1.10;99.90;;;;;;5040177;28;20549;-74
2022/12/14 11:12:14;;;;;;;;;;;-1.10;99.90;;;;;;5007389;28;19928;-77
2022/12/14 11:15:02;;;;;;;;;;;-1.10;99.90;;;;;;5040773;28;19936;-75
2022/12/14 11:17:38;;;;;;;;;;;-1.20;99.90;;;;;;5033543;28;19995;-75
2022/12/14 11:20:13;;;;;;;;;;;-1.10;99.90;;;;;;5023729;28;20073;-75
2022/12/14 11:22:46;;;;;;;;;;;-1.10;99.90;;;;;;5023725;28;19929;-76
2022/12/14 11:25:26;;;;;;;;;;;-1.10;99.90;;;;;;5035848;28;19987;-76
2022/12/14 11:28:00;;;;;;;;;;;-1.10;99.90;;;;;;5042268;28;20016;-76
2022/12/14 11:30:32;;;;;;;;;;;-1.10;99.90;;;;;;5038959;28;19925;-76
2022/12/14 11:33:03;;;;;;;;;;;-1.10;99.90;;;;;;5042645;28;19929;-75
2022/12/14 11:35:35;;;;;;;;;;;-1.10;99.90;;;;;;5046301;28;19960;-75
2022/12/14 11:38:11;;;;;;;;;;;-1.10;99.90;;;;;;5031918;28;19978;-74
2022/12/14 11:40:43;;;;;;;;;;;-1.00;99.90;;;;;;5047039;28;19924;-76
2022/12/14 11:43:48;;;;;;;;;;;-1.00;99.90;;;;;;5023717;28;19924;-77
2022/12/14 11:46:19;;;;;;;;;;;-1.00;99.90;;;;;;4990120;28;20769;-74
2022/12/14 11:48:51;;;;;;;;;;;-1.00;99.90;;;;;;5043738;28;20347;-74
2022/12/14 11:51:23;;;;;;;;;;;-0.90;99.90;;;;;;5032900;28;19925;-75
2022/12/14 11:54:00;;;;;;;;;;;-0.90;99.90;;;;;;5032348;28;20429;-74
2022/12/14 11:56:35;;;;;;;;;;;-0.80;99.90;;;;;;5030757;28;19929;-76
2022/12/14 11:59:13;;;;;;;;;;;-0.80;99.90;;;;;;4986119;28;19929;-74
2022/12/14 12:01:44;;;;;;;;;;;-0.90;99.90;;;;;;5008452;28;19964;-74
2022/12/14 12:04:16;;;;;;;;;;;-0.80;99.90;;;;;;4982981;28;20022;-74
2022/12/14 12:06:48;;;;;;;;;;;-0.80;99.90;;;;;;5016297;28;19925;-75
2022/12/14 12:09:29;;;;;;;;;;;-0.90;99.90;;;;;;5037238;28;19925;-74
2022/12/14 12:12:02;;;;;;;;;;;-0.90;99.90;;;;;;5016060;28;19932;-74
2022/12/14 12:14:34;;;;;;;;;;;-0.90;99.90;;;;;;5020407;28;19935;-74
2022/12/14 12:17:19;;;;;;;;;;;-0.80;99.90;;;;;;5040306;28;19925;-76
2022/12/14 12:19:51;;;;;;;;;;;-0.80;99.90;;;;;;5011894;28;20446;-74
2022/12/14 12:22:24;;;;;;;;;;;-0.80;99.90;;;;;;5024799;28;20374;-75
2022/12/14 12:24:58;;;;;;;;;;;-0.80;99.90;;;;;;4997950;28;19967;-75
2022/12/14 12:27:30;;;;;;;;;;;-0.80;99.90;;;;;;4993927;28;20364;-74
2022/12/14 12:30:28;;;;;;;;;;;-0.80;99.90;;;;;;5015327;28;19925;-74
2022/12/14 12:33:04;;;;;;;;;;;-0.80;99.90;;;;;;4984805;28;19955;-76
2022/12/14 12:35:40;;;;;;;;;;;-0.80;99.90;;;;;;5041487;28;19929;-74
2022/12/14 12:38:15;;;;;;;;;;;-0.70;99.90;;;;;;5007062;28;19929;-77
2022/12/14 12:40:49;;;;;;;;;;;-0.70;99.90;;;;;;5030710;28;19925;-74
2022/12/14 12:43:26;;;;;;;;;;;-0.60;99.90;;;;;;5002828;28;19925;-75
2022/12/14 12:46:10;;;;;;;;;;;-0.60;99.90;;;;;;5016871;28;20457;-76
2022/12/14 12:48:54;;;;;;;;;;;-0.60;99.90;;;;;;5030235;28;19925;-75
2022/12/14 12:51:22;;;;;;;;;;;-0.60;99.90;;;;;;5032788;28;19932;-75
2022/12/14 12:53:57;;;;;;;;;;;-0.60;99.90;;;;;;4991010;28;19929;-76
2022/12/14 12:56:32;;;;;;;;;;;-0.50;99.90;;;;;;5020787;28;19924;-75
2022/12/14 12:59:04;;;;;;;;;;;-0.60;99.90;;;;;;5036452;28;19936;-76
2022/12/14 13:01:38;;;;;;;;;;;-0.70;99.90;;;;;;5038211;28;19929;-75
2022/12/14 13:04:19;;;;;;;;;;;-0.70;99.90;;;;;;5038855;28;19925;-75
2022/12/14 13:06:57;;;;;;;;;;;-0.70;99.90;;;;;;5014639;28;19932;-74
2022/12/14 13:09:32;;;;;;;;;;;-0.70;99.90;;;;;;5010723;28;19925;-75
2022/12/14 13:12:05;;;;;;;;;;;-0.70;99.90;;;;;;5021185;28;19925;-74
2022/12/14 13:14:39;;;;;;;;;;;-0.70;99.90;;;;;;5031249;28;19936;-75
2022/12/14 13:17:22;;;;;;;;;;;-0.80;99.90;;;;;;5036911;28;19933;-75
2022/12/14 13:19:55;;;;;;;;;;;-0.70;99.90;;;;;;5016556;28;20007;-75
2022/12/14 13:22:32;;;;;;;;;;;-0.60;99.90;;;;;;5014838;28;19979;-74
2022/12/14 13:25:11;;;;;;;;;;;-0.60;99.90;;;;;;5026487;28;19944;-74
2022/12/14 13:27:52;;;;;;;;;;;-0.50;99.90;;;;;;5011581;28;19929;-74
2022/12/14 13:30:34;;;;;;;;;;;-0.50;99.90;;;;;;5013558;28;19983;-75
2022/12/14 13:33:08;;;;;;;;;;;-0.50;99.90;;;;;;5036000;28;19936;-75
2022/12/14 13:35:55;;;;;;;;;;;-0.50;99.90;;;;;;5027929;28;20300;-73
2022/12/14 13:38:30;;;;;;;;;;;-0.50;99.90;;;;;;5010171;28;20331;-75
2022/12/14 13:41:16;;;;;;;;;;;-0.50;99.90;;;;;;5035303;28;20296;-74
2022/12/14 13:43:55;;;;;;;;;;;-0.50;99.90;;;;;;5013592;28;19925;-75
2022/12/14 13:46:28;;;;;;;;;;;-0.50;99.90;;;;;;5033880;28;19978;-74
2022/12/14 13:49:01;;;;;;;;;;;-0.50;99.90;;;;;;4999211;28;19925;-74
2022/12/14 13:51:36;;;;;;;;;;;-0.50;99.90;;;;;;4995812;28;19972;-75
2022/12/14 13:54:18;;;;;;;;;;;-0.50;99.90;;;;;;5033325;28;19929;-74
2022/12/14 13:56:49;;;;;;;;;;;-0.50;99.90;;;;;;5030646;28;19952;-74
2022/12/14 13:59:31;;;;;;;;;;;-0.50;99.90;;;;;;5040517;28;19925;-73
2022/12/14 14:02:04;;;;;;;;;;;-0.50;99.90;;;;;;5044828;28;20004;-73
2022/12/14 14:04:36;;;;;;;;;;;-0.40;99.90;;;;;;5018087;28;19925;-74
2022/12/14 14:07:21;;;;;;;;;;;-0.40;99.90;;;;;;5028022;28;20287;-73
2022/12/14 14:09:57;;;;;;;;;;;-0.40;99.90;;;;;;5031697;28;19933;-75
2022/12/14 14:12:31;;;;;;;;;;;-0.30;99.90;;;;;;5021096;28;19929;-74
2022/12/14 14:15:02;;;;;;;;;;;-0.30;99.90;;;;;;5031230;28;20273;-73
2022/12/14 14:17:35;;;;;;;;;;;-0.30;99.90;;;;;;5026143;28;19929;-74
2022/12/14 14:20:26;;;;;;;;;;;-0.30;99.90;;;;;;5039880;28;20366;-73
2022/12/14 14:23:12;;;;;;;;;;;-0.20;99.90;;;;;;5003387;28;19925;-73
2022/12/14 14:25:47;;;;;;;;;;;-0.20;99.90;;;;;;5022662;28;20363;-73
2022/12/14 14:28:21;;;;;;;;;;;-0.10;99.90;;;;;;5039096;28;19979;-73
2022/12/14 14:30:55;;;;;;;;;;;-0.10;99.90;;;;;;5043630;28;19976;-74
2022/12/14 14:33:31;;;;;;;;;;;-0.10;99.90;;;;;;5038930;28;20392;-73
2022/12/14 14:36:21;;;;;;;;;;;-0.10;99.90;;;;;;5041361;28;19936;-73
2022/12/14 14:38:53;;;;;;;;;;;-0.10;99.90;;;;;;5016829;28;19933;-74
2022/12/14 14:41:34;;;;;;;;;;;-0.10;99.90;;;;;;5033445;28;19932;-74
2022/12/14 14:44:14;;;;;;;;;;;-0.10;99.90;;;;;;5021341;28;20413;-76
2022/12/14 14:46:48;;;;;;;;;;;-0.10;99.90;;;;;;5000544;28;19944;-73
2022/12/14 14:49:30;;;;;;;;;;;-0.10;99.90;;;;;;5017229;28;20380;-74
2022/12/14 14:52:34;;;;;;;;;;;-0.10;99.90;;;;;;5023182;28;19933;-74
2022/12/14 14:55:26;;;;;;;;;;;0.00;99.90;;;;;;5000029;28;20454;-74
2022/12/14 14:58:02;;;;;;;;;;;0.00;99.90;;;;;;5021993;28;20300;-73
2022/12/14 15:00:59;;;;;;;;;;;0.00;99.90;;;;;;5035799;28;20439;-74
2022/12/14 15:03:40;;;;;;;;;;;0.00;99.90;;;;;;4990818;28;19925;-72
2022/12/14 15:06:13;;;;;;;;;;;0.00;99.90;;;;;;5034689;28;19929;-73
2022/12/14 15:08:49;;;;;;;;;;;0.10;99.90;;;;;;5020499;28;19932;-74
2022/12/14 15:11:22;;;;;;;;;;;0.10;99.90;;;;;;5029917;28;19933;-74
2022/12/14 15:13:59;;;;;;;;;;;0.20;99.90;;;;;;5035795;28;19979;-74